Star Herdla — LAVD4 — position and weather

sailwx.info

Track history (hours):
 
Tides and Currents Weather Stations Pressure Air Temp Water Temp Dewpoint Dewpoint Depression Visibility Wind Speed Wind Dir Waves Ship Positions

Star Herdla

Last reported at 2014-Jul-28 19:32 UTC. Time now 2014-Jul-28 20:35 UTC.
Position N 53°06' E 008°44'.

Type: Cargo ship. MMSI: 258954000.

Date/timePositionNaut miles runAvg speedWind from/ knotsBaromVisibWave heightAir tempDewpointWater temp
2014-Jul-28 19:32N 53°06' E 008°44'0 0.0
2014-Jul-28 18:34N 53°06' E 008°44'5 4.6
2014-Jul-28 17:33N 53°08' E 008°38'7 7.4
2014-Jul-28 16:33N 53°14' E 008°29'9 9.0
2014-Jul-28 15:32N 53°23' E 008°30'1010.2
2014-Jul-28 14:34N 53°32' E 008°34'9 9.2
2014-Jul-28 13:34N 53°39' E 008°24'1312.5
2014-Jul-28 12:33N 53°48' E 008°08'1211.9
2014-Jul-28 11:32N 53°52' E 007°49'9 9.4
2014-Jul-28 10:33N 53°59' E 007°59'1111.1
2014-Jul-28 09:33N 54°00' E 008°18'1110.8
2014-Jul-28 08:33N 53°58' E 008°36'1312.9
2014-Jul-28 07:34N 53°51' E 008°54'9 9.3
2014-Jul-28 06:33N 53°54' E 009°09'4 3.8
2014-Jul-28 05:33N 53°56' E 009°13'7 6.7
2014-Jul-28 04:33N 54°02' E 009°18'8 6.7
2014-Jul-28 03:25N 54°09' E 009°23'6 6.6
2014-Jul-28 02:27N 54°12' E 009°33'4 4.2
2014-Jul-28 01:25N 54°15' E 009°37'7 5.6
2014-Jul-28 00:06N 54°21' E 009°46'17 3.6
2014-Jul-27 19:18N 54°27' E 010°14'2411.6
2014-Jul-27 17:12N 54°36' E 010°53'913.0
2014-Jul-27 16:31N 54°37' E 011°08'1313.9
2014-Jul-27 15:33N 54°31' E 011°29'1313.2
2014-Jul-27 14:33N 54°26' E 011°50'1212.4
2014-Jul-27 13:33N 54°29' E 012°11'1313.3
2014-Jul-27 12:34N 54°40' E 012°24'1313.3
2014-Jul-27 11:33N 54°48' E 012°43'1313.0
2014-Jul-27 10:33N 54°52' E 013°04'1312.6
2014-Jul-27 09:33N 54°51' E 013°26'1513.5
2014-Jul-27 08:25N 54°45' E 013°51'1213.6
2014-Jul-27 07:30N 54°40' E 014°11'3113.1
2014-Jul-27 05:07N 54°41' E 015°05'913.6
2014-Jul-27 04:26N 54°43' E 015°21'1313.6
2014-Jul-27 03:31N 54°45' E 015°42'4313.4
2014-Jul-27 00:18N 54°51' E 016°56'1013.7
2014-Jul-26 23:34N 54°54' E 017°13'1413.6
2014-Jul-26 22:34N 54°58' E 017°36'1313.5
2014-Jul-26 21:33N 54°60' E 017°59'1414.2
2014-Jul-26 20:34N 54°60' E 018°24'1312.9
2014-Jul-26 19:33N 54°54' E 018°44'1313.1
2014-Jul-26 18:33N 54°44' E 018°59'1312.9
2014-Jul-26 17:33N 54°32' E 018°50'1010.3
2014-Jul-26 16:33N 54°32' E 018°32'0 0.1
2014-Jul-26 15:32N 54°32' E 018°32'0 0.0
2014-Jul-26 14:32N 54°32' E 018°32'0 0.0
2014-Jul-26 13:32N 54°32' E 018°32'0 0.0
2014-Jul-26 12:32N 54°32' E 018°32'0 0.0
2014-Jul-26 11:32N 54°32' E 018°32'0 0.0
2014-Jul-26 10:32N 54°32' E 018°32'0 0.0
2014-Jul-26 09:31N 54°32' E 018°32'0 0.0
2014-Jul-26 08:32N 54°32' E 018°32'0 0.0
2014-Jul-26 07:32N 54°32' E 018°32'0 0.0
2014-Jul-26 06:32N 54°32' E 018°32'0 0.0
2014-Jul-26 05:32N 54°32' E 018°32'0 0.0
2014-Jul-26 04:32N 54°32' E 018°32'0 0.0
2014-Jul-26 03:32N 54°32' E 018°32'0 0.0
2014-Jul-26 02:31N 54°32' E 018°32'0 0.0
2014-Jul-26 01:32N 54°32' E 018°32'0 0.0
2014-Jul-26 00:31N 54°32' E 018°32'0 0.0
2014-Jul-25 23:31N 54°32' E 018°32'0 0.0
2014-Jul-25 22:31N 54°32' E 018°32'0 0.0
2014-Jul-25 21:32N 54°32' E 018°32'0 0.0
2014-Jul-25 20:31N 54°32' E 018°32'0 0.0
2014-Jul-25 19:31N 54°32' E 018°32'0 0.0
2014-Jul-25 18:32N 54°32' E 018°32'0 0.0
2014-Jul-25 17:31N 54°32' E 018°32'0 0.0
2014-Jul-25 16:31N 54°32' E 018°32'0 0.0
2014-Jul-25 15:31N 54°32' E 018°32'0 0.0
2014-Jul-25 14:31N 54°32' E 018°32'0 0.0
2014-Jul-25 13:31N 54°32' E 018°32'0 0.0
2014-Jul-25 12:31N 54°32' E 018°32'0 0.0
2014-Jul-25 11:31N 54°32' E 018°32'0 0.0
2014-Jul-25 10:31N 54°32' E 018°32'0 0.0
2014-Jul-25 09:31N 54°32' E 018°32'0 0.0
2014-Jul-25 08:31N 54°32' E 018°32'0 0.0
2014-Jul-25 07:31N 54°32' E 018°32'0 0.0
2014-Jul-25 06:31N 54°32' E 018°32'0 0.0
2014-Jul-25 05:31N 54°32' E 018°32'0 0.0
2014-Jul-25 04:31N 54°32' E 018°32'0 0.0
2014-Jul-25 03:31N 54°32' E 018°32'0 0.0
2014-Jul-25 02:31N 54°32' E 018°32'0 0.0
2014-Jul-25 01:31N 54°32' E 018°32'0 0.0
2014-Jul-25 00:31N 54°32' E 018°32'0 0.0
2014-Jul-24 23:31N 54°32' E 018°32'0 0.0
2014-Jul-24 22:28N 54°32' E 018°32'0 0.0
2014-Jul-24 21:31N 54°32' E 018°32'0 0.0
2014-Jul-24 20:31N 54°32' E 018°32'0 0.0
2014-Jul-24 19:31N 54°32' E 018°32'0 0.0
2014-Jul-24 18:31N 54°32' E 018°32'0 0.0
2014-Jul-24 17:31N 54°32' E 018°32'0 0.1
2014-Jul-24 16:31N 54°32' E 018°32'0 0.0
2014-Jul-24 15:31N 54°32' E 018°32'0 0.0
2014-Jul-24 14:31N 54°32' E 018°32'0 0.0
2014-Jul-24 13:31N 54°32' E 018°32'0 0.0
2014-Jul-24 12:31N 54°32' E 018°32'0 0.0
2014-Jul-24 11:31N 54°32' E 018°32'0 0.0
2014-Jul-24 10:31N 54°32' E 018°32'0 0.0
2014-Jul-24 09:31N 54°32' E 018°32'0 0.0
2014-Jul-24 08:31N 54°32' E 018°32'0 0.0
2014-Jul-24 07:31N 54°32' E 018°32'0 0.0
2014-Jul-24 06:31N 54°32' E 018°32'0 0.0
2014-Jul-24 05:31N 54°32' E 018°32'0 0.0
2014-Jul-24 04:31N 54°32' E 018°32'0 0.0
2014-Jul-24 03:31N 54°32' E 018°32'0 0.0
2014-Jul-24 02:31N 54°32' E 018°32'0 0.0
2014-Jul-24 01:31N 54°32' E 018°32'0 0.0
2014-Jul-24 00:31N 54°32' E 018°32'0 0.0
2014-Jul-23 23:31N 54°32' E 018°32'0 0.0
2014-Jul-23 22:31N 54°32' E 018°32'0 0.0
2014-Jul-23 21:31N 54°32' E 018°32'0 0.0
2014-Jul-23 20:31N 54°32' E 018°32'0 0.0
2014-Jul-23 19:31N 54°32' E 018°32'0 0.0
2014-Jul-23 18:31N 54°32' E 018°32'0 0.2
2014-Jul-23 17:33N 54°32' E 018°32'5 5.2
2014-Jul-23 16:33N 54°32' E 018°41'1010.0
2014-Jul-23 15:33N 54°38' E 018°55'1111.2
2014-Jul-23 14:34N 54°49' E 018°51'1515.2
2014-Jul-23 13:33N 54°59' E 018°31'1515.4
2014-Jul-23 12:34N 54°60' E 018°04'1515.2
2014-Jul-23 11:33N 54°57' E 017°38'1515.5
2014-Jul-23 10:33N 54°52' E 017°12'1515.4
2014-Jul-23 09:33N 54°48' E 016°46'1615.7
2014-Jul-23 08:33N 54°46' E 016°19'2015.8
2014-Jul-23 07:17N 54°43' E 015°45'1215.8
2014-Jul-23 06:30N 54°41' E 015°24'1615.6
2014-Jul-23 05:30N 54°39' E 014°57'1915.5
2014-Jul-23 04:15N 54°36' E 014°24'1115.8
2014-Jul-23 03:33N 54°39' E 014°06'1616.0
2014-Jul-23 02:33N 54°45' E 013°40'1616.1
2014-Jul-23 01:33N 54°51' E 013°14'1616.0
2014-Jul-23 00:33N 54°46' E 012°47'1515.5
2014-Jul-22 23:33N 54°38' E 012°25'1514.7
2014-Jul-22 22:33N 54°25' E 012°11'1514.9
2014-Jul-22 21:33N 54°25' E 011°46'1615.6
2014-Jul-22 20:33N 54°31' E 011°21'1414.3
2014-Jul-22 19:33N 54°35' E 010°57'58 6.1
2014-Jul-22 10:04N 54°11' E 009°27'4 6.5
2014-Jul-22 09:30N 54°09' E 009°22'7 5.3
2014-Jul-22 08:07N 54°02' E 009°18'3 5.7
2014-Jul-22 07:32N 53°59' E 009°16'5 4.7
2014-Jul-22 06:31N 53°55' E 009°11'2 2.2
2014-Jul-22 05:33N 53°54' E 009°09'2 1.6
2014-Jul-22 04:33N 53°53' E 009°06'7 6.8
2014-Jul-22 03:33N 53°51' E 008°55'1313.1
2014-Jul-22 02:33N 53°58' E 008°36'1413.6
2014-Jul-22 01:33N 53°60' E 008°14'1212.0
2014-Jul-22 00:33N 53°56' E 007°54'1110.7
2014-Jul-21 23:33N 53°49' E 008°07'1917.0
2014-Jul-21 22:26N 53°36' E 008°31'8 8.8
2014-Jul-21 21:33N 53°28' E 008°30'8 7.8
2014-Jul-21 20:33N 53°20' E 008°30'0 0.0
2014-Jul-21 20:18N 53°20' E 008°30'0 0.0
2014-Jul-21 19:31N 53°20' E 008°30'0 0.0
2014-Jul-21 18:28N 53°20' E 008°30'0 0.0
2014-Jul-21 17:28N 53°20' E 008°30'0 0.0
2014-Jul-21 16:28N 53°20' E 008°30'0 0.0
2014-Jul-21 10:16N 53°20' E 008°30'0 0.0
2014-Jul-21 09:16N 53°20' E 008°30'0 0.0
2014-Jul-21 08:28N 53°20' E 008°30'0 0.0
2014-Jul-21 07:10N 53°20' E 008°30'0 0.0
2014-Jul-21 06:31N 53°20' E 008°30'0 0.0
2014-Jul-21 05:28N 53°20' E 008°30'0 0.0
2014-Jul-21 04:31N 53°20' E 008°30'0 0.0
2014-Jul-21 03:31N 53°20' E 008°30'0 0.0
2014-Jul-21 02:25N 53°20' E 008°30'0 0.0
2014-Jul-20 23:31N 53°20' E 008°30'0 0.0
2014-Jul-20 20:28N 53°20' E 008°30'0 0.0
2014-Jul-20 00:13N 53°20' E 008°30'0 0.0
2014-Jul-19 23:31N 53°20' E 008°30'0 0.0
2014-Jul-19 12:33N 53°21' E 008°30'8 7.9
2014-Jul-19 11:33N 53°29' E 008°30'6 6.2
2014-Jul-19 10:33N 53°35' E 008°32'1211.9
2014-Jul-19 09:33N 53°43' E 008°17'1312.6
2014-Jul-19 08:33N 53°51' E 008°01'1211.9
2014-Jul-19 07:33N 53°54' E 007°41'1110.5
2014-Jul-19 06:32N 53°53' E 007°23'1212.0
2014-Jul-19 05:32N 53°51' E 007°03'1212.4
2014-Jul-19 04:32N 53°48' E 006°43'1312.6
2014-Jul-19 03:33N 53°45' E 006°22'1312.9
2014-Jul-19 02:33N 53°41' E 006°02'1313.2
2014-Jul-19 01:33N 53°37' E 005°41'1313.3
2014-Jul-19 00:33N 53°32' E 005°20'1313.5
2014-Jul-18 23:33N 53°28' E 004°58'1313.4
2014-Jul-18 22:34N 53°20' E 004°40'1514.8
2014-Jul-18 21:33N 53°07' E 004°27'1514.6
2014-Jul-18 20:33N 52°54' E 004°16'1414.2
2014-Jul-18 19:33N 52°42' E 004°04'  
Track history (hours):
 
Tides and Currents Weather Stations Pressure Air Temp Water Temp Dewpoint Dewpoint Depression Visibility Wind Speed Wind Dir Waves Ship Positions

Star Herdla

Last reported at 2014-Jul-28 19:32 UTC. Time now 2014-Jul-28 20:35 UTC.
Position N 53°06' E 008°44'.

Type: Cargo ship. MMSI: 258954000.

Date/timePositionNaut miles runAvg speedWind from/ knotsBaromVisibWave heightAir tempDewpointWater temp
2014-Jul-28 19:32N 53°06' E 008°44'0 0.0
2014-Jul-28 18:34N 53°06' E 008°44'5 4.6
2014-Jul-28 17:33N 53°08' E 008°38'7 7.4
2014-Jul-28 16:33N 53°14' E 008°29'9 9.0
2014-Jul-28 15:32N 53°23' E 008°30'1010.2
2014-Jul-28 14:34N 53°32' E 008°34'9 9.2
2014-Jul-28 13:34N 53°39' E 008°24'1312.5
2014-Jul-28 12:33N 53°48' E 008°08'1211.9
2014-Jul-28 11:32N 53°52' E 007°49'9 9.4
2014-Jul-28 10:33N 53°59' E 007°59'1111.1
2014-Jul-28 09:33N 54°00' E 008°18'1110.8
2014-Jul-28 08:33N 53°58' E 008°36'1312.9
2014-Jul-28 07:34N 53°51' E 008°54'9 9.3
2014-Jul-28 06:33N 53°54' E 009°09'4 3.8
2014-Jul-28 05:33N 53°56' E 009°13'7 6.7
2014-Jul-28 04:33N 54°02' E 009°18'8 6.7
2014-Jul-28 03:25N 54°09' E 009°23'6 6.6
2014-Jul-28 02:27N 54°12' E 009°33'4 4.2
2014-Jul-28 01:25N 54°15' E 009°37'7 5.6
2014-Jul-28 00:06N 54°21' E 009°46'17 3.6
2014-Jul-27 19:18N 54°27' E 010°14'2411.6
2014-Jul-27 17:12N 54°36' E 010°53'913.0
2014-Jul-27 16:31N 54°37' E 011°08'1313.9
2014-Jul-27 15:33N 54°31' E 011°29'1313.2
2014-Jul-27 14:33N 54°26' E 011°50'1212.4
2014-Jul-27 13:33N 54°29' E 012°11'1313.3
2014-Jul-27 12:34N 54°40' E 012°24'1313.3
2014-Jul-27 11:33N 54°48' E 012°43'1313.0
2014-Jul-27 10:33N 54°52' E 013°04'1312.6
2014-Jul-27 09:33N 54°51' E 013°26'1513.5
2014-Jul-27 08:25N 54°45' E 013°51'1213.6
2014-Jul-27 07:30N 54°40' E 014°11'3113.1
2014-Jul-27 05:07N 54°41' E 015°05'913.6
2014-Jul-27 04:26N 54°43' E 015°21'1313.6
2014-Jul-27 03:31N 54°45' E 015°42'4313.4
2014-Jul-27 00:18N 54°51' E 016°56'1013.7
2014-Jul-26 23:34N 54°54' E 017°13'1413.6
2014-Jul-26 22:34N 54°58' E 017°36'1313.5
2014-Jul-26 21:33N 54°60' E 017°59'1414.2
2014-Jul-26 20:34N 54°60' E 018°24'1312.9
2014-Jul-26 19:33N 54°54' E 018°44'1313.1
2014-Jul-26 18:33N 54°44' E 018°59'1312.9
2014-Jul-26 17:33N 54°32' E 018°50'1010.3
2014-Jul-26 16:33N 54°32' E 018°32'0 0.1
2014-Jul-26 15:32N 54°32' E 018°32'0 0.0
2014-Jul-26 14:32N 54°32' E 018°32'0 0.0
2014-Jul-26 13:32N 54°32' E 018°32'0 0.0
2014-Jul-26 12:32N 54°32' E 018°32'0 0.0
2014-Jul-26 11:32N 54°32' E 018°32'0 0.0
2014-Jul-26 10:32N 54°32' E 018°32'0 0.0
2014-Jul-26 09:31N 54°32' E 018°32'0 0.0
2014-Jul-26 08:32N 54°32' E 018°32'0 0.0
2014-Jul-26 07:32N 54°32' E 018°32'0 0.0
2014-Jul-26 06:32N 54°32' E 018°32'0 0.0
2014-Jul-26 05:32N 54°32' E 018°32'0 0.0
2014-Jul-26 04:32N 54°32' E 018°32'0 0.0
2014-Jul-26 03:32N 54°32' E 018°32'0 0.0
2014-Jul-26 02:31N 54°32' E 018°32'0 0.0
2014-Jul-26 01:32N 54°32' E 018°32'0 0.0
2014-Jul-26 00:31N 54°32' E 018°32'0 0.0
2014-Jul-25 23:31N 54°32' E 018°32'0 0.0
2014-Jul-25 22:31N 54°32' E 018°32'0 0.0
2014-Jul-25 21:32N 54°32' E 018°32'0 0.0
2014-Jul-25 20:31N 54°32' E 018°32'0 0.0
2014-Jul-25 19:31N 54°32' E 018°32'0 0.0
2014-Jul-25 18:32N 54°32' E 018°32'0 0.0
2014-Jul-25 17:31N 54°32' E 018°32'0 0.0
2014-Jul-25 16:31N 54°32' E 018°32'0 0.0
2014-Jul-25 15:31N 54°32' E 018°32'0 0.0
2014-Jul-25 14:31N 54°32' E 018°32'0 0.0
2014-Jul-25 13:31N 54°32' E 018°32'0 0.0
2014-Jul-25 12:31N 54°32' E 018°32'0 0.0
2014-Jul-25 11:31N 54°32' E 018°32'0 0.0
2014-Jul-25 10:31N 54°32' E 018°32'0 0.0
2014-Jul-25 09:31N 54°32' E 018°32'0 0.0
2014-Jul-25 08:31N 54°32' E 018°32'0 0.0
2014-Jul-25 07:31N 54°32' E 018°32'0 0.0
2014-Jul-25 06:31N 54°32' E 018°32'0 0.0
2014-Jul-25 05:31N 54°32' E 018°32'0 0.0
2014-Jul-25 04:31N 54°32' E 018°32'0 0.0
2014-Jul-25 03:31N 54°32' E 018°32'0 0.0
2014-Jul-25 02:31N 54°32' E 018°32'0 0.0
2014-Jul-25 01:31N 54°32' E 018°32'0 0.0
2014-Jul-25 00:31N 54°32' E 018°32'0 0.0
2014-Jul-24 23:31N 54°32' E 018°32'0 0.0
2014-Jul-24 22:28N 54°32' E 018°32'0 0.0
2014-Jul-24 21:31N 54°32' E 018°32'0 0.0
2014-Jul-24 20:31N 54°32' E 018°32'0 0.0
2014-Jul-24 19:31N 54°32' E 018°32'0 0.0
2014-Jul-24 18:31N 54°32' E 018°32'0 0.0
2014-Jul-24 17:31N 54°32' E 018°32'0 0.1
2014-Jul-24 16:31N 54°32' E 018°32'0 0.0
2014-Jul-24 15:31N 54°32' E 018°32'0 0.0
2014-Jul-24 14:31N 54°32' E 018°32'0 0.0
2014-Jul-24 13:31N 54°32' E 018°32'0 0.0
2014-Jul-24 12:31N 54°32' E 018°32'0 0.0
2014-Jul-24 11:31N 54°32' E 018°32'0 0.0
2014-Jul-24 10:31N 54°32' E 018°32'0 0.0
2014-Jul-24 09:31N 54°32' E 018°32'0 0.0
2014-Jul-24 08:31N 54°32' E 018°32'0 0.0
2014-Jul-24 07:31N 54°32' E 018°32'0 0.0
2014-Jul-24 06:31N 54°32' E 018°32'0 0.0
2014-Jul-24 05:31N 54°32' E 018°32'0 0.0
2014-Jul-24 04:31N 54°32' E 018°32'0 0.0
2014-Jul-24 03:31N 54°32' E 018°32'0 0.0
2014-Jul-24 02:31N 54°32' E 018°32'0 0.0
2014-Jul-24 01:31N 54°32' E 018°32'0 0.0
2014-Jul-24 00:31N 54°32' E 018°32'0 0.0
2014-Jul-23 23:31N 54°32' E 018°32'0 0.0
2014-Jul-23 22:31N 54°32' E 018°32'0 0.0
2014-Jul-23 21:31N 54°32' E 018°32'0 0.0
2014-Jul-23 20:31N 54°32' E 018°32'0 0.0
2014-Jul-23 19:31N 54°32' E 018°32'0 0.0
2014-Jul-23 18:31N 54°32' E 018°32'0 0.2
2014-Jul-23 17:33N 54°32' E 018°32'5 5.2
2014-Jul-23 16:33N 54°32' E 018°41'1010.0
2014-Jul-23 15:33N 54°38' E 018°55'1111.2
2014-Jul-23 14:34N 54°49' E 018°51'1515.2
2014-Jul-23 13:33N 54°59' E 018°31'1515.4
2014-Jul-23 12:34N 54°60' E 018°04'1515.2
2014-Jul-23 11:33N 54°57' E 017°38'1515.5
2014-Jul-23 10:33N 54°52' E 017°12'1515.4
2014-Jul-23 09:33N 54°48' E 016°46'1615.7
2014-Jul-23 08:33N 54°46' E 016°19'2015.8
2014-Jul-23 07:17N 54°43' E 015°45'1215.8
2014-Jul-23 06:30N 54°41' E 015°24'1615.6
2014-Jul-23 05:30N 54°39' E 014°57'1915.5
2014-Jul-23 04:15N 54°36' E 014°24'1115.8
2014-Jul-23 03:33N 54°39' E 014°06'1616.0
2014-Jul-23 02:33N 54°45' E 013°40'1616.1
2014-Jul-23 01:33N 54°51' E 013°14'1616.0
2014-Jul-23 00:33N 54°46' E 012°47'1515.5
2014-Jul-22 23:33N 54°38' E 012°25'1514.7
2014-Jul-22 22:33N 54°25' E 012°11'1514.9
2014-Jul-22 21:33N 54°25' E 011°46'1615.6
2014-Jul-22 20:33N 54°31' E 011°21'1414.3
2014-Jul-22 19:33N 54°35' E 010°57'58 6.1
2014-Jul-22 10:04N 54°11' E 009°27'4 6.5
2014-Jul-22 09:30N 54°09' E 009°22'7 5.3
2014-Jul-22 08:07N 54°02' E 009°18'3 5.7
2014-Jul-22 07:32N 53°59' E 009°16'5 4.7
2014-Jul-22 06:31N 53°55' E 009°11'2 2.2
2014-Jul-22 05:33N 53°54' E 009°09'2 1.6
2014-Jul-22 04:33N 53°53' E 009°06'7 6.8
2014-Jul-22 03:33N 53°51' E 008°55'1313.1
2014-Jul-22 02:33N 53°58' E 008°36'1413.6
2014-Jul-22 01:33N 53°60' E 008°14'1212.0
2014-Jul-22 00:33N 53°56' E 007°54'1110.7
2014-Jul-21 23:33N 53°49' E 008°07'1917.0
2014-Jul-21 22:26N 53°36' E 008°31'8 8.8
2014-Jul-21 21:33N 53°28' E 008°30'8 7.8
2014-Jul-21 20:33N 53°20' E 008°30'0 0.0
2014-Jul-21 20:18N 53°20' E 008°30'0 0.0
2014-Jul-21 19:31N 53°20' E 008°30'0 0.0
2014-Jul-21 18:28N 53°20' E 008°30'0 0.0
2014-Jul-21 17:28N 53°20' E 008°30'0 0.0
2014-Jul-21 16:28N 53°20' E 008°30'0 0.0
2014-Jul-21 10:16N 53°20' E 008°30'0 0.0
2014-Jul-21 09:16N 53°20' E 008°30'0 0.0
2014-Jul-21 08:28N 53°20' E 008°30'0 0.0
2014-Jul-21 07:10N 53°20' E 008°30'0 0.0
2014-Jul-21 06:31N 53°20' E 008°30'0 0.0
2014-Jul-21 05:28N 53°20' E 008°30'0 0.0
2014-Jul-21 04:31N 53°20' E 008°30'0 0.0
2014-Jul-21 03:31N 53°20' E 008°30'0 0.0
2014-Jul-21 02:25N 53°20' E 008°30'0 0.0
2014-Jul-20 23:31N 53°20' E 008°30'0 0.0
2014-Jul-20 20:28N 53°20' E 008°30'0 0.0
2014-Jul-20 00:13N 53°20' E 008°30'0 0.0
2014-Jul-19 23:31N 53°20' E 008°30'0 0.0
2014-Jul-19 12:33N 53°21' E 008°30'8 7.9
2014-Jul-19 11:33N 53°29' E 008°30'6 6.2
2014-Jul-19 10:33N 53°35' E 008°32'1211.9
2014-Jul-19 09:33N 53°43' E 008°17'1312.6
2014-Jul-19 08:33N 53°51' E 008°01'1211.9
2014-Jul-19 07:33N 53°54' E 007°41'1110.5
2014-Jul-19 06:32N 53°53' E 007°23'1212.0
2014-Jul-19 05:32N 53°51' E 007°03'1212.4
2014-Jul-19 04:32N 53°48' E 006°43'1312.6
2014-Jul-19 03:33N 53°45' E 006°22'1312.9
2014-Jul-19 02:33N 53°41' E 006°02'1313.2
2014-Jul-19 01:33N 53°37' E 005°41'1313.3
2014-Jul-19 00:33N 53°32' E 005°20'1313.5
2014-Jul-18 23:33N 53°28' E 004°58'1313.4
2014-Jul-18 22:34N 53°20' E 004°40'1514.8
2014-Jul-18 21:33N 53°07' E 004°27'1514.6
2014-Jul-18 20:33N 52°54' E 004°16'1414.2
2014-Jul-18 19:33N 52°42' E 004°04'  

Dump ship's entire track history